sensor_id;sensor_type;location;lat;lon;timestamp;P1;durP1;ratioP1;P2;durP2;ratioP2
64375;SDS011;50700;55.416;12.952;2022-07-23T00:02:14;6.75;;;2.13;;
64375;SDS011;50700;55.416;12.952;2022-07-23T00:04:40;6.50;;;2.55;;
64375;SDS011;50700;55.416;12.952;2022-07-23T00:07:06;7.65;;;2.42;;
64375;SDS011;50700;55.416;12.952;2022-07-23T00:09:32;4.65;;;2.15;;
64375;SDS011;50700;55.416;12.952;2022-07-23T00:11:59;6.70;;;2.30;;
64375;SDS011;50700;55.416;12.952;2022-07-23T00:14:25;5.30;;;2.08;;
64375;SDS011;50700;55.416;12.952;2022-07-23T00:16:51;11.48;;;2.50;;
64375;SDS011;50700;55.416;12.952;2022-07-23T00:19:18;6.43;;;2.38;;
64375;SDS011;50700;55.416;12.952;2022-07-23T00:21:44;5.97;;;2.55;;
64375;SDS011;50700;55.416;12.952;2022-07-23T00:24:10;4.50;;;2.10;;
64375;SDS011;50700;55.416;12.952;2022-07-23T00:26:36;7.65;;;2.28;;
64375;SDS011;50700;55.416;12.952;2022-07-23T00:29:02;7.50;;;2.00;;
64375;SDS011;50700;55.416;12.952;2022-07-23T00:31:29;6.30;;;2.47;;
64375;SDS011;50700;55.416;12.952;2022-07-23T00:33:55;7.07;;;2.67;;
64375;SDS011;50700;55.416;12.952;2022-07-23T00:36:22;5.15;;;2.25;;
64375;SDS011;50700;55.416;12.952;2022-07-23T00:38:49;2.80;;;1.90;;
64375;SDS011;50700;55.416;12.952;2022-07-23T00:41:15;4.65;;;1.88;;
64375;SDS011;50700;55.416;12.952;2022-07-23T00:43:41;6.22;;;2.30;;
64375;SDS011;50700;55.416;12.952;2022-07-23T00:46:08;5.95;;;2.10;;
64375;SDS011;50700;55.416;12.952;2022-07-23T00:48:34;5.10;;;2.20;;
64375;SDS011;50700;55.416;12.952;2022-07-23T00:51:00;2.55;;;1.77;;
64375;SDS011;50700;55.416;12.952;2022-07-23T00:53:26;4.32;;;1.67;;
64375;SDS011;50700;55.416;12.952;2022-07-23T00:55:53;2.22;;;1.60;;
64375;SDS011;50700;55.416;12.952;2022-07-23T00:58:19;6.25;;;2.20;;
64375;SDS011;50700;55.416;12.952;2022-07-23T01:00:45;7.13;;;2.22;;
64375;SDS011;50700;55.416;12.952;2022-07-23T01:03:12;5.03;;;2.00;;
64375;SDS011;50700;55.416;12.952;2022-07-23T01:05:38;4.20;;;1.80;;
64375;SDS011;50700;55.416;12.952;2022-07-23T01:08:05;4.47;;;2.28;;
64375;SDS011;50700;55.416;12.952;2022-07-23T01:10:32;6.85;;;1.83;;
64375;SDS011;50700;55.416;12.952;2022-07-23T01:12:59;2.03;;;1.80;;
64375;SDS011;50700;55.416;12.952;2022-07-23T01:15:26;5.20;;;2.30;;
64375;SDS011;50700;55.416;12.952;2022-07-23T01:17:52;4.38;;;1.75;;
64375;SDS011;50700;55.416;12.952;2022-07-23T01:20:18;2.42;;;1.88;;
64375;SDS011;50700;55.416;12.952;2022-07-23T01:22:45;3.75;;;1.85;;
64375;SDS011;50700;55.416;12.952;2022-07-23T01:25:11;4.07;;;1.83;;
64375;SDS011;50700;55.416;12.952;2022-07-23T01:27:37;6.57;;;2.40;;
64375;SDS011;50700;55.416;12.952;2022-07-23T01:30:04;6.60;;;2.30;;
64375;SDS011;50700;55.416;12.952;2022-07-23T01:32:30;3.83;;;2.38;;
64375;SDS011;50700;55.416;12.952;2022-07-23T01:34:57;5.78;;;2.25;;
64375;SDS011;50700;55.416;12.952;2022-07-23T01:37:23;5.45;;;2.25;;
64375;SDS011;50700;55.416;12.952;2022-07-23T01:39:49;4.38;;;2.10;;
64375;SDS011;50700;55.416;12.952;2022-07-23T01:42:15;2.88;;;2.30;;
64375;SDS011;50700;55.416;12.952;2022-07-23T01:44:41;4.78;;;1.95;;
64375;SDS011;50700;55.416;12.952;2022-07-23T01:47:07;8.55;;;2.35;;
64375;SDS011;50700;55.416;12.952;2022-07-23T01:49:34;4.75;;;2.22;;
64375;SDS011;50700;55.416;12.952;2022-07-23T01:52:00;4.43;;;2.60;;
64375;SDS011;50700;55.416;12.952;2022-07-23T01:54:26;5.78;;;1.98;;
64375;SDS011;50700;55.416;12.952;2022-07-23T01:56:53;5.25;;;2.50;;
64375;SDS011;50700;55.416;12.952;2022-07-23T01:59:19;6.32;;;2.22;;
64375;SDS011;50700;55.416;12.952;2022-07-23T02:01:46;7.22;;;2.88;;
64375;SDS011;50700;55.416;12.952;2022-07-23T02:04:12;4.35;;;2.10;;
64375;SDS011;50700;55.416;12.952;2022-07-23T02:06:38;8.52;;;2.67;;
64375;SDS011;50700;55.416;12.952;2022-07-23T02:09:04;5.00;;;2.00;;
64375;SDS011;50700;55.416;12.952;2022-07-23T02:11:30;7.57;;;3.35;;
64375;SDS011;50700;55.416;12.952;2022-07-23T02:13:57;6.22;;;2.33;;
64375;SDS011;50700;55.416;12.952;2022-07-23T02:16:23;6.32;;;2.20;;
64375;SDS011;50700;55.416;12.952;2022-07-23T02:18:49;8.50;;;2.42;;
64375;SDS011;50700;55.416;12.952;2022-07-23T02:21:15;6.75;;;2.20;;
64375;SDS011;50700;55.416;12.952;2022-07-23T02:23:41;3.67;;;2.28;;
64375;SDS011;50700;55.416;12.952;2022-07-23T02:26:08;6.20;;;2.70;;
64375;SDS011;50700;55.416;12.952;2022-07-23T02:28:34;4.18;;;1.92;;
64375;SDS011;50700;55.416;12.952;2022-07-23T02:31:00;4.10;;;2.47;;
64375;SDS011;50700;55.416;12.952;2022-07-23T02:33:26;7.63;;;2.35;;
64375;SDS011;50700;55.416;12.952;2022-07-23T02:35:52;2.58;;;2.15;;
64375;SDS011;50700;55.416;12.952;2022-07-23T02:38:18;4.68;;;2.25;;
64375;SDS011;50700;55.416;12.952;2022-07-23T02:40:44;14.50;;;2.85;;
64375;SDS011;50700;55.416;12.952;2022-07-23T02:43:11;5.75;;;2.45;;
64375;SDS011;50700;55.416;12.952;2022-07-23T02:45:37;6.45;;;2.58;;
64375;SDS011;50700;55.416;12.952;2022-07-23T02:48:03;6.28;;;2.30;;
64375;SDS011;50700;55.416;12.952;2022-07-23T02:50:29;6.45;;;2.00;;
64375;SDS011;50700;55.416;12.952;2022-07-23T02:52:56;5.57;;;2.50;;
64375;SDS011;50700;55.416;12.952;2022-07-23T02:55:22;6.38;;;2.10;;
64375;SDS011;50700;55.416;12.952;2022-07-23T02:57:48;4.45;;;2.05;;
64375;SDS011;50700;55.416;12.952;2022-07-23T03:00:14;6.60;;;2.20;;
64375;SDS011;50700;55.416;12.952;2022-07-23T03:02:41;7.25;;;2.30;;
64375;SDS011;50700;55.416;12.952;2022-07-23T03:05:07;5.57;;;2.42;;
64375;SDS011;50700;55.416;12.952;2022-07-23T03:07:34;9.32;;;2.28;;
64375;SDS011;50700;55.416;12.952;2022-07-23T03:10:00;9.18;;;2.50;;
64375;SDS011;50700;55.416;12.952;2022-07-23T03:12:26;4.57;;;1.90;;
64375;SDS011;50700;55.416;12.952;2022-07-23T03:14:52;7.20;;;2.20;;
64375;SDS011;50700;55.416;12.952;2022-07-23T03:17:19;9.82;;;2.33;;
64375;SDS011;50700;55.416;12.952;2022-07-23T03:19:45;4.35;;;2.40;;
64375;SDS011;50700;55.416;12.952;2022-07-23T03:22:11;5.38;;;2.22;;
64375;SDS011;50700;55.416;12.952;2022-07-23T03:24:37;6.78;;;2.40;;
64375;SDS011;50700;55.416;12.952;2022-07-23T03:27:19;4.93;;;2.55;;
64375;SDS011;50700;55.416;12.952;2022-07-23T03:29:45;6.47;;;2.70;;
64375;SDS011;50700;55.416;12.952;2022-07-23T03:32:11;7.10;;;2.20;;
64375;SDS011;50700;55.416;12.952;2022-07-23T03:34:38;6.05;;;2.00;;
64375;SDS011;50700;55.416;12.952;2022-07-23T03:37:04;3.92;;;2.20;;
64375;SDS011;50700;55.416;12.952;2022-07-23T03:39:30;6.97;;;2.45;;
64375;SDS011;50700;55.416;12.952;2022-07-23T03:41:56;6.68;;;2.13;;
64375;SDS011;50700;55.416;12.952;2022-07-23T03:44:22;6.47;;;2.30;;
64375;SDS011;50700;55.416;12.952;2022-07-23T03:46:49;5.97;;;2.78;;
64375;SDS011;50700;55.416;12.952;2022-07-23T03:49:15;5.70;;;2.45;;
64375;SDS011;50700;55.416;12.952;2022-07-23T03:51:41;5.72;;;2.20;;
64375;SDS011;50700;55.416;12.952;2022-07-23T03:54:07;4.78;;;1.90;;
64375;SDS011;50700;55.416;12.952;2022-07-23T03:56:34;4.10;;;2.28;;
64375;SDS011;50700;55.416;12.952;2022-07-23T03:59:00;3.20;;;1.70;;
64375;SDS011;50700;55.416;12.952;2022-07-23T04:01:26;4.80;;;2.10;;
64375;SDS011;50700;55.416;12.952;2022-07-23T04:03:52;7.03;;;2.50;;
64375;SDS011;50700;55.416;12.952;2022-07-23T04:06:18;5.93;;;2.00;;
64375;SDS011;50700;55.416;12.952;2022-07-23T04:08:45;2.45;;;2.03;;
64375;SDS011;50700;55.416;12.952;2022-07-23T04:11:11;4.00;;;2.13;;
64375;SDS011;50700;55.416;12.952;2022-07-23T04:13:37;4.43;;;2.65;;
64375;SDS011;50700;55.416;12.952;2022-07-23T04:16:03;7.13;;;2.42;;
64375;SDS011;50700;55.416;12.952;2022-07-23T04:18:30;5.85;;;2.22;;
64375;SDS011;50700;55.416;12.952;2022-07-23T04:20:56;3.58;;;2.22;;
64375;SDS011;50700;55.416;12.952;2022-07-23T04:23:22;5.85;;;2.00;;
64375;SDS011;50700;55.416;12.952;2022-07-23T04:25:49;5.82;;;2.10;;
64375;SDS011;50700;55.416;12.952;2022-07-23T04:28:15;7.18;;;2.03;;
64375;SDS011;50700;55.416;12.952;2022-07-23T04:30:41;5.80;;;1.95;;
64375;SDS011;50700;55.416;12.952;2022-07-23T04:33:07;4.28;;;2.17;;
64375;SDS011;50700;55.416;12.952;2022-07-23T04:35:34;3.88;;;2.00;;
64375;SDS011;50700;55.416;12.952;2022-07-23T04:38:00;6.90;;;2.15;;
64375;SDS011;50700;55.416;12.952;2022-07-23T04:40:27;4.68;;;2.15;;
64375;SDS011;50700;55.416;12.952;2022-07-23T04:42:53;4.53;;;2.08;;
64375;SDS011;50700;55.416;12.952;2022-07-23T04:45:19;6.18;;;2.05;;
64375;SDS011;50700;55.416;12.952;2022-07-23T04:47:45;5.88;;;2.28;;
64375;SDS011;50700;55.416;12.952;2022-07-23T04:50:12;3.78;;;1.95;;
64375;SDS011;50700;55.416;12.952;2022-07-23T04:52:38;5.45;;;2.03;;
64375;SDS011;50700;55.416;12.952;2022-07-23T04:55:04;4.10;;;2.40;;
64375;SDS011;50700;55.416;12.952;2022-07-23T04:57:30;4.20;;;2.10;;
64375;SDS011;50700;55.416;12.952;2022-07-23T04:59:57;4.82;;;2.20;;
64375;SDS011;50700;55.416;12.952;2022-07-23T05:02:23;6.25;;;2.50;;
64375;SDS011;50700;55.416;12.952;2022-07-23T05:04:49;5.88;;;2.20;;
64375;SDS011;50700;55.416;12.952;2022-07-23T05:07:15;5.35;;;2.03;;
64375;SDS011;50700;55.416;12.952;2022-07-23T05:09:41;8.30;;;2.83;;
64375;SDS011;50700;55.416;12.952;2022-07-23T05:12:08;7.78;;;2.08;;
64375;SDS011;50700;55.416;12.952;2022-07-23T05:14:34;7.63;;;2.65;;
64375;SDS011;50700;55.416;12.952;2022-07-23T05:17:00;5.55;;;1.88;;
64375;SDS011;50700;55.416;12.952;2022-07-23T05:19:26;10.55;;;1.98;;
64375;SDS011;50700;55.416;12.952;2022-07-23T05:21:53;7.45;;;2.10;;
64375;SDS011;50700;55.416;12.952;2022-07-23T05:24:19;7.82;;;2.78;;
64375;SDS011;50700;55.416;12.952;2022-07-23T05:26:45;8.13;;;2.15;;
64375;SDS011;50700;55.416;12.952;2022-07-23T05:29:11;7.65;;;2.30;;
64375;SDS011;50700;55.416;12.952;2022-07-23T05:31:37;5.32;;;2.97;;
64375;SDS011;50700;55.416;12.952;2022-07-23T05:34:04;4.72;;;2.33;;
64375;SDS011;50700;55.416;12.952;2022-07-23T05:36:31;7.60;;;3.20;;
64375;SDS011;50700;55.416;12.952;2022-07-23T05:38:57;7.85;;;2.92;;
64375;SDS011;50700;55.416;12.952;2022-07-23T05:41:23;5.43;;;2.45;;
64375;SDS011;50700;55.416;12.952;2022-07-23T05:43:50;4.72;;;2.38;;
64375;SDS011;50700;55.416;12.952;2022-07-23T05:46:16;8.27;;;2.28;;
64375;SDS011;50700;55.416;12.952;2022-07-23T05:48:42;5.72;;;2.33;;
64375;SDS011;50700;55.416;12.952;2022-07-23T05:51:11;6.53;;;2.00;;
64375;SDS011;50700;55.416;12.952;2022-07-23T05:53:37;10.27;;;2.75;;
64375;SDS011;50700;55.416;12.952;2022-07-23T05:56:03;7.88;;;2.55;;
64375;SDS011;50700;55.416;12.952;2022-07-23T05:58:30;7.18;;;2.63;;
64375;SDS011;50700;55.416;12.952;2022-07-23T06:00:56;6.07;;;2.15;;
64375;SDS011;50700;55.416;12.952;2022-07-23T06:03:22;5.80;;;2.60;;
64375;SDS011;50700;55.416;12.952;2022-07-23T06:05:48;6.95;;;2.58;;
64375;SDS011;50700;55.416;12.952;2022-07-23T06:08:14;5.75;;;2.65;;
64375;SDS011;50700;55.416;12.952;2022-07-23T06:10:41;7.97;;;2.75;;
64375;SDS011;50700;55.416;12.952;2022-07-23T06:13:07;6.70;;;2.33;;
64375;SDS011;50700;55.416;12.952;2022-07-23T06:15:33;7.85;;;2.95;;
64375;SDS011;50700;55.416;12.952;2022-07-23T06:17:59;7.40;;;2.70;;
64375;SDS011;50700;55.416;12.952;2022-07-23T06:20:25;8.10;;;2.55;;
64375;SDS011;50700;55.416;12.952;2022-07-23T06:22:51;10.05;;;2.47;;
64375;SDS011;50700;55.416;12.952;2022-07-23T06:25:18;11.07;;;3.70;;
64375;SDS011;50700;55.416;12.952;2022-07-23T06:27:45;6.70;;;2.30;;
64375;SDS011;50700;55.416;12.952;2022-07-23T06:30:13;7.68;;;2.20;;
64375;SDS011;50700;55.416;12.952;2022-07-23T06:32:41;5.32;;;2.53;;
64375;SDS011;50700;55.416;12.952;2022-07-23T06:35:07;8.25;;;2.28;;
64375;SDS011;50700;55.416;12.952;2022-07-23T06:37:34;11.70;;;2.75;;
64375;SDS011;50700;55.416;12.952;2022-07-23T06:40:01;9.45;;;2.17;;
64375;SDS011;50700;55.416;12.952;2022-07-23T06:42:28;5.60;;;2.25;;
64375;SDS011;50700;55.416;12.952;2022-07-23T06:44:54;6.10;;;2.20;;
64375;SDS011;50700;55.416;12.952;2022-07-23T06:47:20;6.15;;;2.35;;
64375;SDS011;50700;55.416;12.952;2022-07-23T06:49:47;9.25;;;2.55;;
64375;SDS011;50700;55.416;12.952;2022-07-23T06:52:13;8.88;;;2.50;;
64375;SDS011;50700;55.416;12.952;2022-07-23T06:54:39;4.88;;;2.50;;
64375;SDS011;50700;55.416;12.952;2022-07-23T06:57:05;5.28;;;2.30;;
64375;SDS011;50700;55.416;12.952;2022-07-23T06:59:31;4.22;;;2.28;;
64375;SDS011;50700;55.416;12.952;2022-07-23T07:01:58;10.88;;;2.95;;
64375;SDS011;50700;55.416;12.952;2022-07-23T07:04:24;5.88;;;3.00;;
64375;SDS011;50700;55.416;12.952;2022-07-23T07:06:50;6.22;;;2.40;;
64375;SDS011;50700;55.416;12.952;2022-07-23T07:09:16;7.85;;;2.40;;
64375;SDS011;50700;55.416;12.952;2022-07-23T07:11:43;6.60;;;2.47;;
64375;SDS011;50700;55.416;12.952;2022-07-23T07:14:09;7.00;;;2.17;;
64375;SDS011;50700;55.416;12.952;2022-07-23T07:16:35;5.18;;;2.42;;
64375;SDS011;50700;55.416;12.952;2022-07-23T07:19:01;9.38;;;2.53;;
64375;SDS011;50700;55.416;12.952;2022-07-23T07:21:27;8.07;;;2.70;;
64375;SDS011;50700;55.416;12.952;2022-07-23T07:23:54;5.93;;;2.40;;
64375;SDS011;50700;55.416;12.952;2022-07-23T07:26:20;6.18;;;2.65;;
64375;SDS011;50700;55.416;12.952;2022-07-23T07:28:46;6.72;;;2.55;;
64375;SDS011;50700;55.416;12.952;2022-07-23T07:31:12;7.82;;;2.78;;
64375;SDS011;50700;55.416;12.952;2022-07-23T07:33:38;6.05;;;2.55;;
64375;SDS011;50700;55.416;12.952;2022-07-23T07:36:05;5.57;;;2.70;;
64375;SDS011;50700;55.416;12.952;2022-07-23T07:38:31;9.43;;;2.63;;
64375;SDS011;50700;55.416;12.952;2022-07-23T07:40:57;3.45;;;2.38;;
64375;SDS011;50700;55.416;12.952;2022-07-23T07:43:23;5.82;;;2.08;;
64375;SDS011;50700;55.416;12.952;2022-07-23T07:45:49;10.48;;;2.53;;
64375;SDS011;50700;55.416;12.952;2022-07-23T07:48:16;7.65;;;2.78;;
64375;SDS011;50700;55.416;12.952;2022-07-23T07:50:42;2.85;;;2.30;;
64375;SDS011;50700;55.416;12.952;2022-07-23T07:53:08;4.43;;;2.40;;
64375;SDS011;50700;55.416;12.952;2022-07-23T07:55:34;7.75;;;2.78;;
64375;SDS011;50700;55.416;12.952;2022-07-23T07:58:01;6.70;;;2.50;;
64375;SDS011;50700;55.416;12.952;2022-07-23T08:00:27;6.57;;;2.30;;
64375;SDS011;50700;55.416;12.952;2022-07-23T08:02:53;3.75;;;1.92;;
64375;SDS011;50700;55.416;12.952;2022-07-23T08:05:21;5.55;;;2.10;;
64375;SDS011;50700;55.416;12.952;2022-07-23T08:07:48;5.45;;;1.80;;
64375;SDS011;50700;55.416;12.952;2022-07-23T08:10:14;4.40;;;1.80;;
64375;SDS011;50700;55.416;12.952;2022-07-23T08:12:50;4.18;;;1.83;;
64375;SDS011;50700;55.416;12.952;2022-07-23T08:15:17;4.00;;;1.40;;
64375;SDS011;50700;55.416;12.952;2022-07-23T08:17:49;3.38;;;1.60;;
64375;SDS011;50700;55.416;12.952;2022-07-23T08:20:16;6.95;;;1.88;;
64375;SDS011;50700;55.416;12.952;2022-07-23T08:22:50;5.13;;;1.98;;
64375;SDS011;50700;55.416;12.952;2022-07-23T08:25:20;1.83;;;1.70;;
64375;SDS011;50700;55.416;12.952;2022-07-23T08:27:47;3.25;;;1.67;;
64375;SDS011;50700;55.416;12.952;2022-07-23T08:30:14;4.13;;;1.60;;
64375;SDS011;50700;55.416;12.952;2022-07-23T08:35:41;5.03;;;1.73;;
64375;SDS011;50700;55.416;12.952;2022-07-23T08:38:08;1.65;;;1.40;;
64375;SDS011;50700;55.416;12.952;2022-07-23T08:40:38;2.17;;;1.30;;
64375;SDS011;50700;55.416;12.952;2022-07-23T08:43:06;4.07;;;1.40;;
64375;SDS011;50700;55.416;12.952;2022-07-23T08:45:36;1.60;;;0.90;;
64375;SDS011;50700;55.416;12.952;2022-07-23T08:48:04;1.05;;;0.95;;
64375;SDS011;50700;55.416;12.952;2022-07-23T08:50:31;1.70;;;1.58;;
64375;SDS011;50700;55.416;12.952;2022-07-23T08:52:58;1.83;;;1.33;;
64375;SDS011;50700;55.416;12.952;2022-07-23T08:55:25;1.80;;;0.98;;
64375;SDS011;50700;55.416;12.952;2022-07-23T08:57:52;2.30;;;1.30;;
64375;SDS011;50700;55.416;12.952;2022-07-23T09:00:19;2.60;;;1.27;;
64375;SDS011;50700;55.416;12.952;2022-07-23T09:02:46;2.47;;;1.45;;
64375;SDS011;50700;55.416;12.952;2022-07-23T09:05:13;0.98;;;0.98;;
64375;SDS011;50700;55.416;12.952;2022-07-23T09:10:25;1.33;;;1.00;;
64375;SDS011;50700;55.416;12.952;2022-07-23T09:12:51;1.35;;;1.00;;
64375;SDS011;50700;55.416;12.952;2022-07-23T09:15:17;1.20;;;0.90;;
64375;SDS011;50700;55.416;12.952;2022-07-23T09:17:43;2.88;;;0.93;;
64375;SDS011;50700;55.416;12.952;2022-07-23T09:20:13;1.95;;;1.00;;
64375;SDS011;50700;55.416;12.952;2022-07-23T09:22:44;2.05;;;1.05;;
64375;SDS011;50700;55.416;12.952;2022-07-23T09:25:16;2.10;;;1.17;;
64375;SDS011;50700;55.416;12.952;2022-07-23T09:27:55;0.93;;;0.77;;
64375;SDS011;50700;55.416;12.952;2022-07-23T09:30:23;1.08;;;0.90;;
64375;SDS011;50700;55.416;12.952;2022-07-23T09:35:44;1.83;;;1.10;;
64375;SDS011;50700;55.416;12.952;2022-07-23T09:38:11;1.55;;;1.00;;
64375;SDS011;50700;55.416;12.952;2022-07-23T09:40:37;1.50;;;1.40;;
64375;SDS011;50700;55.416;12.952;2022-07-23T09:43:03;0.98;;;0.82;;
64375;SDS011;50700;55.416;12.952;2022-07-23T09:45:29;1.80;;;0.90;;
64375;SDS011;50700;55.416;12.952;2022-07-23T09:48:15;2.25;;;0.80;;
64375;SDS011;50700;55.416;12.952;2022-07-23T09:50:42;2.28;;;1.20;;
64375;SDS011;50700;55.416;12.952;2022-07-23T09:53:09;2.58;;;0.95;;
64375;SDS011;50700;55.416;12.952;2022-07-23T09:55:37;1.10;;;1.00;;
64375;SDS011;50700;55.416;12.952;2022-07-23T09:58:04;1.35;;;0.98;;
64375;SDS011;50700;55.416;12.952;2022-07-23T10:00:32;1.15;;;0.90;;
64375;SDS011;50700;55.416;12.952;2022-07-23T10:02:59;1.15;;;0.93;;
64375;SDS011;50700;55.416;12.952;2022-07-23T10:05:26;1.38;;;0.90;;
64375;SDS011;50700;55.416;12.952;2022-07-23T10:07:52;2.28;;;0.75;;
64375;SDS011;50700;55.416;12.952;2022-07-23T10:10:19;1.52;;;1.42;;
64375;SDS011;50700;55.416;12.952;2022-07-23T10:12:46;1.48;;;1.05;;
64375;SDS011;50700;55.416;12.952;2022-07-23T10:15:16;2.90;;;1.20;;
64375;SDS011;50700;55.416;12.952;2022-07-23T10:17:42;1.20;;;1.10;;
64375;SDS011;50700;55.416;12.952;2022-07-23T10:20:08;1.15;;;1.05;;
64375;SDS011;50700;55.416;12.952;2022-07-23T10:22:38;3.22;;;1.00;;
64375;SDS011;50700;55.416;12.952;2022-07-23T10:33:21;4.90;;;1.45;;
64375;SDS011;50700;55.416;12.952;2022-07-23T10:35:56;1.63;;;1.30;;
64375;SDS011;50700;55.416;12.952;2022-07-23T10:38:25;2.88;;;1.35;;
64375;SDS011;50700;55.416;12.952;2022-07-23T10:41:01;2.47;;;1.40;;
64375;SDS011;50700;55.416;12.952;2022-07-23T10:43:28;2.67;;;1.70;;
64375;SDS011;50700;55.416;12.952;2022-07-23T10:45:55;2.65;;;1.75;;
64375;SDS011;50700;55.416;12.952;2022-07-23T10:48:25;10.65;;;3.40;;
64375;SDS011;50700;55.416;12.952;2022-07-23T10:51:11;1.50;;;1.40;;
64375;SDS011;50700;55.416;12.952;2022-07-23T10:56:19;1.50;;;1.40;;
64375;SDS011;50700;55.416;12.952;2022-07-23T10:59:03;1.40;;;1.10;;
64375;SDS011;50700;55.416;12.952;2022-07-23T11:01:39;3.58;;;1.40;;
64375;SDS011;50700;55.416;12.952;2022-07-23T11:04:06;2.72;;;1.40;;
64375;SDS011;50700;55.416;12.952;2022-07-23T11:09:27;1.88;;;1.30;;
64375;SDS011;50700;55.416;12.952;2022-07-23T11:17:23;2.15;;;1.23;;
64375;SDS011;50700;55.416;12.952;2022-07-23T11:22:52;3.60;;;1.48;;
64375;SDS011;50700;55.416;12.952;2022-07-23T11:27:48;2.42;;;1.17;;
64375;SDS011;50700;55.416;12.952;2022-07-23T11:32:53;2.78;;;1.40;;
64375;SDS011;50700;55.416;12.952;2022-07-23T11:35:21;1.20;;;1.10;;
64375;SDS011;50700;55.416;12.952;2022-07-23T11:37:48;1.20;;;1.10;;
64375;SDS011;50700;55.416;12.952;2022-07-23T11:40:15;2.38;;;1.15;;
64375;SDS011;50700;55.416;12.952;2022-07-23T11:42:58;3.15;;;1.08;;
64375;SDS011;50700;55.416;12.952;2022-07-23T11:45:28;1.65;;;0.80;;
64375;SDS011;50700;55.416;12.952;2022-07-23T11:47:55;1.42;;;1.13;;
64375;SDS011;50700;55.416;12.952;2022-07-23T11:50:23;1.52;;;1.20;;
64375;SDS011;50700;55.416;12.952;2022-07-23T11:52:51;1.73;;;1.08;;
64375;SDS011;50700;55.416;12.952;2022-07-23T11:55:18;1.23;;;0.88;;
64375;SDS011;50700;55.416;12.952;2022-07-23T11:57:44;1.80;;;1.02;;
64375;SDS011;50700;55.416;12.952;2022-07-23T12:00:15;3.20;;;0.82;;
64375;SDS011;50700;55.416;12.952;2022-07-23T12:02:43;1.85;;;1.20;;
64375;SDS011;50700;55.416;12.952;2022-07-23T12:05:17;1.23;;;0.68;;
64375;SDS011;50700;55.416;12.952;2022-07-23T12:07:44;0.82;;;0.80;;
64375;SDS011;50700;55.416;12.952;2022-07-23T12:12:44;2.33;;;0.90;;
64375;SDS011;50700;55.416;12.952;2022-07-23T12:15:12;0.90;;;0.90;;
64375;SDS011;50700;55.416;12.952;2022-07-23T12:17:39;1.38;;;0.70;;
64375;SDS011;50700;55.416;12.952;2022-07-23T12:20:07;0.70;;;0.70;;
64375;SDS011;50700;55.416;12.952;2022-07-23T12:23:07;0.73;;;0.73;;
64375;SDS011;50700;55.416;12.952;2022-07-23T12:25:28;0.80;;;0.70;;
64375;SDS011;50700;55.416;12.952;2022-07-23T12:28:11;2.28;;;0.63;;
64375;SDS011;50700;55.416;12.952;2022-07-23T12:33:04;0.82;;;0.50;;
64375;SDS011;50700;55.416;12.952;2022-07-23T12:35:32;0.63;;;0.60;;
64375;SDS011;50700;55.416;12.952;2022-07-23T12:38:03;0.73;;;0.70;;
64375;SDS011;50700;55.416;12.952;2022-07-23T12:40:31;1.80;;;0.75;;
64375;SDS011;50700;55.416;12.952;2022-07-23T12:43:02;0.60;;;0.60;;
64375;SDS011;50700;55.416;12.952;2022-07-23T12:45:41;1.25;;;0.73;;
64375;SDS011;50700;55.416;12.952;2022-07-23T12:48:07;1.20;;;0.82;;
64375;SDS011;50700;55.416;12.952;2022-07-23T12:53:10;0.73;;;0.57;;
64375;SDS011;50700;55.416;12.952;2022-07-23T12:55:38;1.20;;;0.80;;
64375;SDS011;50700;55.416;12.952;2022-07-23T12:58:05;1.02;;;0.60;;
64375;SDS011;50700;55.416;12.952;2022-07-23T13:00:33;1.50;;;1.40;;
64375;SDS011;50700;55.416;12.952;2022-07-23T13:03:27;0.60;;;0.60;;
64375;SDS011;50700;55.416;12.952;2022-07-23T13:05:54;1.73;;;0.70;;
64375;SDS011;50700;55.416;12.952;2022-07-23T13:08:21;1.42;;;0.60;;
64375;SDS011;50700;55.416;12.952;2022-07-23T13:10:47;0.77;;;0.77;;
64375;SDS011;50700;55.416;12.952;2022-07-23T13:13:16;1.10;;;0.60;;
64375;SDS011;50700;55.416;12.952;2022-07-23T13:15:43;2.30;;;0.70;;
64375;SDS011;50700;55.416;12.952;2022-07-23T13:18:09;0.70;;;0.70;;
64375;SDS011;50700;55.416;12.952;2022-07-23T13:20:35;1.05;;;0.82;;
64375;SDS011;50700;55.416;12.952;2022-07-23T13:23:04;1.08;;;0.80;;
64375;SDS011;50700;55.416;12.952;2022-07-23T13:25:30;1.23;;;0.80;;
64375;SDS011;50700;55.416;12.952;2022-07-23T13:27:56;0.80;;;0.68;;
64375;SDS011;50700;55.416;12.952;2022-07-23T13:30:23;0.70;;;0.70;;
64375;SDS011;50700;55.416;12.952;2022-07-23T13:32:49;1.45;;;1.02;;
64375;SDS011;50700;55.416;12.952;2022-07-23T13:35:15;3.50;;;0.95;;
64375;SDS011;50700;55.416;12.952;2022-07-23T13:37:41;1.00;;;0.80;;
64375;SDS011;50700;55.416;12.952;2022-07-23T13:40:08;0.70;;;0.70;;
64375;SDS011;50700;55.416;12.952;2022-07-23T13:42:34;0.88;;;0.73;;
64375;SDS011;50700;55.416;12.952;2022-07-23T13:45:00;0.98;;;0.82;;
64375;SDS011;50700;55.416;12.952;2022-07-23T13:47:26;0.85;;;0.77;;
64375;SDS011;50700;55.416;12.952;2022-07-23T13:49:52;1.80;;;0.90;;
64375;SDS011;50700;55.416;12.952;2022-07-23T13:52:19;1.88;;;1.30;;
64375;SDS011;50700;55.416;12.952;2022-07-23T13:54:46;1.75;;;1.20;;
64375;SDS011;50700;55.416;12.952;2022-07-23T13:57:12;1.10;;;1.00;;
64375;SDS011;50700;55.416;12.952;2022-07-23T13:59:38;1.15;;;0.82;;
64375;SDS011;50700;55.416;12.952;2022-07-23T14:02:05;2.95;;;1.13;;
64375;SDS011;50700;55.416;12.952;2022-07-23T14:04:31;0.82;;;0.82;;
64375;SDS011;50700;55.416;12.952;2022-07-23T14:06:57;3.08;;;0.90;;
64375;SDS011;50700;55.416;12.952;2022-07-23T14:09:24;1.08;;;1.00;;
64375;SDS011;50700;55.416;12.952;2022-07-23T14:11:50;2.55;;;1.00;;
64375;SDS011;50700;55.416;12.952;2022-07-23T14:14:17;1.10;;;1.00;;
64375;SDS011;50700;55.416;12.952;2022-07-23T14:16:43;1.50;;;0.88;;
64375;SDS011;50700;55.416;12.952;2022-07-23T14:19:10;2.47;;;0.90;;
64375;SDS011;50700;55.416;12.952;2022-07-23T14:21:37;1.38;;;1.00;;
64375;SDS011;50700;55.416;12.952;2022-07-23T14:24:03;0.75;;;0.70;;
64375;SDS011;50700;55.416;12.952;2022-07-23T14:26:29;1.52;;;1.10;;
64375;SDS011;50700;55.416;12.952;2022-07-23T14:28:56;1.10;;;0.98;;
64375;SDS011;50700;55.416;12.952;2022-07-23T14:31:22;1.52;;;1.30;;
64375;SDS011;50700;55.416;12.952;2022-07-23T14:33:48;0.70;;;0.70;;
64375;SDS011;50700;55.416;12.952;2022-07-23T14:36:14;2.55;;;1.00;;
64375;SDS011;50700;55.416;12.952;2022-07-23T14:38:41;1.45;;;0.80;;
64375;SDS011;50700;55.416;12.952;2022-07-23T14:41:07;1.75;;;0.90;;
64375;SDS011;50700;55.416;12.952;2022-07-23T14:43:35;1.38;;;0.80;;
64375;SDS011;50700;55.416;12.952;2022-07-23T14:46:01;1.40;;;0.80;;
64375;SDS011;50700;55.416;12.952;2022-07-23T14:48:27;1.90;;;0.75;;
64375;SDS011;50700;55.416;12.952;2022-07-23T14:50:53;0.60;;;0.60;;
64375;SDS011;50700;55.416;12.952;2022-07-23T14:53:19;3.80;;;0.93;;
64375;SDS011;50700;55.416;12.952;2022-07-23T14:55:45;1.65;;;0.80;;
64375;SDS011;50700;55.416;12.952;2022-07-23T14:58:12;5.20;;;0.80;;
64375;SDS011;50700;55.416;12.952;2022-07-23T15:00:38;3.95;;;0.80;;
64375;SDS011;50700;55.416;12.952;2022-07-23T15:03:04;2.60;;;0.93;;
64375;SDS011;50700;55.416;12.952;2022-07-23T15:05:30;4.15;;;1.38;;
64375;SDS011;50700;55.416;12.952;2022-07-23T15:07:56;1.73;;;1.10;;
64375;SDS011;50700;55.416;12.952;2022-07-23T15:10:23;1.35;;;0.60;;
64375;SDS011;50700;55.416;12.952;2022-07-23T15:12:49;1.10;;;0.63;;
64375;SDS011;50700;55.416;12.952;2022-07-23T15:15:15;0.88;;;0.88;;
64375;SDS011;50700;55.416;12.952;2022-07-23T15:17:43;0.50;;;0.50;;